Spa/La Sauveniere, Belgium
Current Conditions -  °F | °C
As of 2:25 PM on Saturday 20 Dec 2014 (Local Time) from EBLB Reporting Station
Broken Clouds Broken Clouds  
Wind Chill: 28°   Ceiling: 2200
Heat Index: 37°   Visibility: 6mi
Dew Point: 34°   Wind: 16mph
Humidity: 87%   Direction: 280°W
Pressure: 30.12"   Gusts: NA
Location:  50.49°N, 5.89°E
Report Text: EBLB 201325Z AUTO 28014KT 9999 FEW012/// SCT016/// BKN022/// 03/01 Q1020 WHT
Loading
Personal Weather Stations






























Interactive Weather Map New forecast layout! Learn more

10-Day Weather Forecast

Advertisements
Track Severe Weather on mobile